createdAt,value
2019-04-23T00:01:02.999Z,6.70
2019-04-23T00:03:18.746Z,6.43
2019-04-23T00:05:54.930Z,6.67
2019-04-23T00:08:29.185Z,8.00
2019-04-23T00:10:59.910Z,7.23
2019-04-23T00:13:30.512Z,6.70
2019-04-23T00:16:03.176Z,6.20
2019-04-23T00:18:36.817Z,6.70
2019-04-23T00:21:23.568Z,7.17
2019-04-23T00:24:07.539Z,7.50
2019-04-23T00:26:31.884Z,7.60
2019-04-23T00:29:00.551Z,6.20
2019-04-23T00:31:27.503Z,6.33
2019-04-23T00:33:59.125Z,6.90
2019-04-23T00:36:32.455Z,6.93
2019-04-23T00:38:55.796Z,6.40
2019-04-23T00:41:31.184Z,6.83
2019-04-23T00:46:28.906Z,7.33
2019-04-23T00:49:06.127Z,6.60
2019-04-23T00:51:32.880Z,7.03
2019-04-23T00:54:02.241Z,6.40
2019-04-23T00:56:38.589Z,7.13
2019-04-23T00:59:00.397Z,6.63
2019-04-23T01:01:41.217Z,5.93
2019-04-23T01:04:07.150Z,7.27
2019-04-23T01:06:32.457Z,6.93
2019-04-23T01:09:03.268Z,6.33
2019-04-23T01:11:32.073Z,6.97
2019-04-23T01:14:06.691Z,7.40
2019-04-23T01:16:32.945Z,7.60
2019-04-23T01:18:58.072Z,7.03
2019-04-23T01:21:30.604Z,7.70
2019-04-23T01:24:19.079Z,7.43
2019-04-23T01:27:39.013Z,7.10
2019-04-23T01:30:05.079Z,7.00
2019-04-23T01:32:32.099Z,7.07
2019-04-23T01:37:33.139Z,7.93
2019-04-23T01:40:09.715Z,7.20
2019-04-23T01:42:42.834Z,6.67
2019-04-23T01:45:07.248Z,7.50
2019-04-23T01:47:30.394Z,7.00
2019-04-23T01:50:09.683Z,7.20
2019-04-23T01:52:39.861Z,8.77
2019-04-23T01:55:10.235Z,6.63
2019-04-23T01:57:37.538Z,6.60
2019-04-23T02:00:14.322Z,6.33
2019-04-23T02:02:43.101Z,8.30
2019-04-23T02:05:09.391Z,7.43
2019-04-23T02:07:45.658Z,7.23
2019-04-23T02:10:31.193Z,7.13
2019-04-23T02:12:42.084Z,7.00
2019-04-23T02:15:11.485Z,6.67
2019-04-23T02:17:41.151Z,6.77
2019-04-23T02:22:51.798Z,8.27
2019-04-23T02:25:34.503Z,7.60
2019-04-23T02:27:59.348Z,7.30
2019-04-23T02:35:46.826Z,7.33
2019-04-23T02:40:37.386Z,7.60
2019-04-23T02:48:11.064Z,7.43
2019-04-23T02:53:07.849Z,6.90
2019-04-23T03:33:08.271Z,6.60
2019-04-23T03:41:14.781Z,8.57
2019-04-23T03:43:48.992Z,7.73
2019-04-23T05:24:53.693Z,9.17
2019-04-23T05:26:44.517Z,9.10
2019-04-23T05:31:32.848Z,9.00
2019-04-23T05:34:12.596Z,9.77
2019-04-23T05:39:17.533Z,8.90
2019-04-23T05:44:15.463Z,10.47
2019-04-23T05:49:11.092Z,10.17
2019-04-23T05:51:50.867Z,10.70
2019-04-23T05:54:12.541Z,10.40
2019-04-23T06:04:22.873Z,10.17
2019-04-23T06:07:06.058Z,10.23
2019-04-23T06:11:52.557Z,10.80
2019-04-23T06:14:19.018Z,12.40
2019-04-23T06:16:50.684Z,12.33
2019-04-23T06:19:16.908Z,11.90
2019-04-23T06:22:00.401Z,10.70
2019-04-23T06:24:35.066Z,11.73
2019-04-23T06:26:54.237Z,11.63
2019-04-23T06:29:25.475Z,11.60
2019-04-23T06:34:31.116Z,11.83
2019-04-23T06:36:51.441Z,12.03
2019-04-23T06:39:34.480Z,12.10
2019-04-23T06:41:55.041Z,13.57
2019-04-23T06:44:32.753Z,12.30
2019-04-23T06:47:12.922Z,11.90
2019-04-23T06:49:37.707Z,12.50
2019-04-23T06:52:14.950Z,12.60
2019-04-23T06:59:39.098Z,13.53
2019-04-23T07:04:41.043Z,13.10
2019-04-23T07:09:37.270Z,14.10
2019-04-23T07:12:09.079Z,14.63
2019-04-23T07:14:47.679Z,14.33
2019-04-23T07:17:08.674Z,14.90
2019-04-23T07:19:42.374Z,13.73
2019-04-23T07:27:14.894Z,13.50
2019-04-23T07:29:50.099Z,14.67
2019-04-23T07:32:11.620Z,15.07
2019-04-23T07:34:50.930Z,15.07
2019-04-23T07:37:18.999Z,15.60
2019-04-23T07:40:11.313Z,16.60
2019-04-23T07:45:02.096Z,14.03
2019-04-23T07:47:43.533Z,16.03
2019-04-23T07:52:51.344Z,14.10
2019-04-23T07:55:22.060Z,16.17
2019-04-23T07:57:53.594Z,15.53
2019-04-23T08:00:18.158Z,14.80
2019-04-23T08:02:44.091Z,15.50
2019-04-23T08:05:25.113Z,15.57
2019-04-23T08:07:52.479Z,14.73
2019-04-23T08:10:22.801Z,15.50
2019-04-23T08:12:50.592Z,15.37
2019-04-23T08:15:24.943Z,17.17
2019-04-23T08:17:50.514Z,17.10
2019-04-23T08:20:22.764Z,16.97
2019-04-23T08:22:57.129Z,16.43
2019-04-23T08:25:32.008Z,16.30
2019-04-23T08:30:26.462Z,16.43
2019-04-23T08:32:58.298Z,16.50
2019-04-23T08:35:19.466Z,16.30
2019-04-23T08:38:22.888Z,16.83
2019-04-23T08:40:30.850Z,17.80
2019-04-23T08:43:09.063Z,16.20
2019-04-23T08:48:22.978Z,17.17
2019-04-23T08:50:50.697Z,17.10
2019-04-23T08:53:30.874Z,17.60
2019-04-23T08:58:19.056Z,17.67
2019-04-23T09:00:52.097Z,16.40
2019-04-23T09:05:55.891Z,16.20
2019-04-23T09:08:33.174Z,17.47
2019-04-23T09:10:56.819Z,17.17
2019-04-23T09:18:22.562Z,16.40
2019-04-23T09:20:53.031Z,17.23
2019-04-23T09:23:30.411Z,17.23
2019-04-23T09:25:55.948Z,17.93
2019-04-23T09:28:34.569Z,16.70
2019-04-23T09:31:03.983Z,15.67
2019-04-23T09:33:39.444Z,17.50
2019-04-23T09:36:09.793Z,17.03
2019-04-23T09:38:46.866Z,17.80
2019-04-23T09:43:57.792Z,16.20
2019-04-23T09:46:23.597Z,17.73
2019-04-23T09:48:58.244Z,17.00
2019-04-23T09:53:59.447Z,17.30
2019-04-23T09:56:32.718Z,15.60
2019-04-23T09:59:07.465Z,15.57
2019-04-23T10:03:48.736Z,15.90
2019-04-23T10:06:16.106Z,15.53
2019-04-23T10:08:44.949Z,15.77
2019-04-23T10:11:09.575Z,16.30
2019-04-23T10:13:38.685Z,15.77
2019-04-23T10:16:11.642Z,15.50
2019-04-23T10:18:39.348Z,16.90
2019-04-23T10:21:08.403Z,16.33
2019-04-23T10:23:37.244Z,15.73
2019-04-23T10:26:07.854Z,15.03
2019-04-23T10:28:40.109Z,14.93
2019-04-23T10:31:09.605Z,15.20
2019-04-23T10:33:39.825Z,14.53
2019-04-23T10:36:11.673Z,14.57
2019-04-23T10:38:41.614Z,15.03
2019-04-23T10:41:10.196Z,13.97
2019-04-23T10:43:42.159Z,14.97
2019-04-23T10:46:48.936Z,14.57
2019-04-23T10:49:53.324Z,14.57
2019-04-23T10:57:16.626Z,15.70
2019-04-23T10:59:44.988Z,14.40
2019-04-23T11:02:36.451Z,16.50
2019-04-23T11:09:55.826Z,15.03
2019-04-23T11:15:32.240Z,15.73
2019-04-23T11:17:45.610Z,14.83
2019-04-23T11:22:48.281Z,15.03
2019-04-23T11:25:33.031Z,14.27
2019-04-23T11:35:47.776Z,14.80
2019-04-23T11:40:42.020Z,14.13
2019-04-23T11:43:29.282Z,13.37
2019-04-23T11:46:07.982Z,15.17
2019-04-23T11:48:46.623Z,16.20
2019-04-23T11:51:38.854Z,14.70
2019-04-23T11:53:52.880Z,15.20
2019-04-23T11:58:42.727Z,13.83
2019-04-23T12:01:40.768Z,15.70
2019-04-23T12:04:23.012Z,15.53
2019-04-23T12:06:42.026Z,15.13
2019-04-23T12:09:25.908Z,14.97
2019-04-23T12:14:40.458Z,16.27
2019-04-23T12:17:20.903Z,15.50
2019-04-23T12:19:52.064Z,16.67
2019-04-23T12:22:10.790Z,14.93
2019-04-23T12:24:58.191Z,16.90
2019-04-23T12:30:14.616Z,18.70
2019-04-23T12:37:34.638Z,17.63
2019-04-23T12:40:12.899Z,16.50
2019-04-23T12:47:53.629Z,17.43
2019-04-23T12:52:47.240Z,18.47
2019-04-23T12:57:49.016Z,18.97
2019-04-23T13:00:22.452Z,17.73
2019-04-23T13:03:06.325Z,17.37
2019-04-23T13:05:26.651Z,18.20
2019-04-23T13:08:23.379Z,18.10
2019-04-23T13:13:09.293Z,18.87
2019-04-23T13:15:30.513Z,17.53
2019-04-23T13:18:19.601Z,18.43
2019-04-23T13:20:31.893Z,18.73
2019-04-23T13:23:11.812Z,18.60
2019-04-23T13:25:55.501Z,17.40
2019-04-23T13:28:21.769Z,18.80
2019-04-23T13:33:31.984Z,17.17
2019-04-23T13:38:27.560Z,16.63
2019-04-23T13:40:57.202Z,17.83
2019-04-23T13:43:36.382Z,18.57
2019-04-23T13:48:15.172Z,17.50
2019-04-23T13:50:59.211Z,17.73
2019-04-23T13:53:34.377Z,17.30
2019-04-23T13:55:52.510Z,19.10
2019-04-23T14:01:18.199Z,17.97
2019-04-23T14:03:36.092Z,17.43
2019-04-23T14:06:10.882Z,17.20
2019-04-23T14:11:03.433Z,18.70
2019-04-23T14:18:51.541Z,17.90
2019-04-23T14:21:14.262Z,18.87
2019-04-23T14:23:59.137Z,17.70
2019-04-23T14:26:15.898Z,17.20
2019-04-23T14:28:41.841Z,19.13
2019-04-23T14:31:13.118Z,19.00
2019-04-23T14:33:51.232Z,20.10
2019-04-23T14:36:14.063Z,16.93
2019-04-23T14:38:43.926Z,19.10
2019-04-23T14:41:18.056Z,17.37
2019-04-23T14:43:49.821Z,17.83
2019-04-23T14:51:24.082Z,17.00
2019-04-23T14:58:57.995Z,16.50
2019-04-23T15:01:27.485Z,18.00
2019-04-23T15:06:31.581Z,17.20
2019-04-23T15:08:58.610Z,16.13
2019-04-23T15:11:27.109Z,16.07
2019-04-23T15:13:58.479Z,15.50
2019-04-23T15:19:23.721Z,16.23
2019-04-23T15:24:23.174Z,18.20
2019-04-23T15:29:01.140Z,16.60
2019-04-23T15:31:51.473Z,15.77
2019-04-23T15:34:17.764Z,15.83
2019-04-23T15:44:14.793Z,16.47
2019-04-23T15:46:49.114Z,16.03
2019-04-23T15:51:57.925Z,16.60
2019-04-23T15:56:54.709Z,15.67
2019-04-23T15:59:27.556Z,17.50
2019-04-23T16:01:43.381Z,15.67
2019-04-23T16:03:55.861Z,16.00
2019-04-23T16:06:28.478Z,16.70
2019-04-23T16:09:15.746Z,16.83
2019-04-23T16:11:58.092Z,16.63
2019-04-23T16:14:31.239Z,15.67
2019-04-23T16:19:45.791Z,15.63
2019-04-23T16:24:48.429Z,15.10
2019-04-23T16:27:11.106Z,16.27
2019-04-23T16:30:10.827Z,15.73
2019-04-23T16:32:30.957Z,15.30
2019-04-23T16:34:48.897Z,14.57
2019-04-23T16:37:24.862Z,16.63
2019-04-23T16:39:57.524Z,14.90
2019-04-23T16:42:26.730Z,14.87
2019-04-23T16:47:23.985Z,13.90
2019-04-23T16:50:04.972Z,14.27
2019-04-23T16:52:27.844Z,14.63
2019-04-23T16:57:35.983Z,13.40
2019-04-23T17:00:17.135Z,15.07
2019-04-23T17:02:24.434Z,13.30
2019-04-23T17:05:04.757Z,14.00
2019-04-23T17:07:19.736Z,14.20
2019-04-23T17:10:11.590Z,12.90
2019-04-23T17:12:16.676Z,14.53
2019-04-23T17:15:03.213Z,13.80
2019-04-23T17:17:25.181Z,14.03
2019-04-23T17:19:59.414Z,12.40
2019-04-23T17:22:30.090Z,12.90
2019-04-23T17:25:06.603Z,12.37
2019-04-23T17:27:41.641Z,13.23
2019-04-23T17:30:06.764Z,11.43
2019-04-23T17:32:28.283Z,12.53
2019-04-23T17:35:17.395Z,12.23
2019-04-23T17:37:38.112Z,11.70
2019-04-23T17:42:44.006Z,11.93
2019-04-23T17:45:30.855Z,13.80
2019-04-23T17:48:13.490Z,12.23
2019-04-23T17:56:01.081Z,10.43
2019-04-23T17:58:28.501Z,14.73
2019-04-23T18:01:07.342Z,11.90
2019-04-23T18:03:23.444Z,10.43
2019-04-23T18:06:14.293Z,10.90
2019-04-23T18:08:27.208Z,10.33
2019-04-23T18:11:05.999Z,8.97
2019-04-23T18:13:28.204Z,10.53
2019-04-23T18:16:04.128Z,9.70
2019-04-23T18:18:40.731Z,10.27
2019-04-23T18:21:21.442Z,9.50
2019-04-23T18:24:13.514Z,9.60
2019-04-23T18:26:42.626Z,9.00
2019-04-23T18:29:18.904Z,9.10
2019-04-23T18:31:38.274Z,8.60
2019-04-23T18:36:39.655Z,8.40
2019-04-23T18:39:12.112Z,9.20
2019-04-23T18:41:43.333Z,9.03
2019-04-23T18:46:54.136Z,10.40
2019-04-23T18:49:21.499Z,9.80
2019-04-23T18:54:14.443Z,11.13
2019-04-23T18:57:05.805Z,10.97
2019-04-23T18:59:39.294Z,10.07
2019-04-23T19:02:05.153Z,10.60
2019-04-23T19:04:50.997Z,10.50
2019-04-23T19:07:32.022Z,10.63
2019-04-23T19:12:44.385Z,10.80
2019-04-23T19:15:13.963Z,11.63
2019-04-23T19:20:16.170Z,11.20
2019-04-23T19:22:46.871Z,12.43
2019-04-23T19:25:16.331Z,13.13
2019-04-23T19:27:45.875Z,11.53
2019-04-23T19:40:53.564Z,10.77
2019-04-23T19:43:19.921Z,13.77
2019-04-23T19:53:29.728Z,13.37
2019-04-23T19:56:04.479Z,12.67
2019-04-23T19:58:31.069Z,13.87
2019-04-23T20:11:06.613Z,13.80
2019-04-23T20:13:47.182Z,12.90
2019-04-23T20:18:46.036Z,11.43
2019-04-23T20:24:02.968Z,11.77
2019-04-23T20:33:17.017Z,13.60
2019-04-23T20:39:09.099Z,13.00
2019-04-23T20:42:02.345Z,12.40
2019-04-23T20:44:33.571Z,13.13
2019-04-23T20:47:11.483Z,12.80
2019-04-23T20:57:24.959Z,13.90
2019-04-23T21:00:02.059Z,13.53
2019-04-23T21:02:39.070Z,13.43
2019-04-23T21:05:09.822Z,12.93
2019-04-23T21:07:31.591Z,14.70
2019-04-23T21:10:11.149Z,13.63
2019-04-23T21:12:45.859Z,14.70
2019-04-23T21:15:04.805Z,15.17
2019-04-23T21:17:38.432Z,14.37
2019-04-23T21:20:10.244Z,15.07
2019-04-23T21:24:56.602Z,14.67
2019-04-23T21:32:42.269Z,16.30
2019-04-23T21:35:07.752Z,15.40
2019-04-23T21:37:52.720Z,18.27
2019-04-23T21:43:08.899Z,18.07
2019-04-23T21:45:40.787Z,18.33
2019-04-23T21:48:09.666Z,19.53
2019-04-23T21:50:44.359Z,18.70
2019-04-23T21:53:06.820Z,19.67
2019-04-23T21:55:47.256Z,18.30
2019-04-23T22:00:54.985Z,20.20
2019-04-23T22:05:49.477Z,19.00
2019-04-23T22:08:35.150Z,19.87
2019-04-23T22:10:57.304Z,19.50
2019-04-23T22:13:34.954Z,19.20
2019-04-23T22:16:01.783Z,18.83
2019-04-23T22:18:22.023Z,21.07
2019-04-23T22:20:59.356Z,20.67
2019-04-23T22:23:33.829Z,21.60
2019-04-23T22:25:56.470Z,21.33
2019-04-23T22:28:26.990Z,22.23
2019-04-23T22:31:04.017Z,20.57
2019-04-23T22:33:27.225Z,23.70
2019-04-23T22:36:02.848Z,23.23
2019-04-23T22:40:58.162Z,21.80
2019-04-23T22:43:37.720Z,21.80
2019-04-23T22:46:16.322Z,24.20
2019-04-23T22:48:34.569Z,24.30
2019-04-23T22:51:11.016Z,24.90
2019-04-23T22:53:46.579Z,24.83
2019-04-23T22:58:42.623Z,26.00
2019-04-23T23:01:19.681Z,24.43
2019-04-23T23:03:51.584Z,25.67
2019-04-23T23:08:57.448Z,24.13
2019-04-23T23:11:14.106Z,25.27
2019-04-23T23:14:03.976Z,24.63
2019-04-23T23:16:16.424Z,25.10
2019-04-23T23:18:52.205Z,22.73
2019-04-23T23:23:46.348Z,24.70
2019-04-23T23:26:14.182Z,24.90
2019-04-23T23:28:44.634Z,23.47
2019-04-23T23:33:54.254Z,25.47
2019-04-23T23:36:20.240Z,25.30
2019-04-23T23:39:00.384Z,26.77
2019-04-23T23:43:54.631Z,23.77
2019-04-23T23:46:29.512Z,25.77
2019-04-23T23:48:57.089Z,25.70
2019-04-23T23:51:34.447Z,24.17
2019-04-23T23:53:57.153Z,24.17
